sensor_id;sensor_type;location;lat;lon;timestamp;P1;durP1;ratioP1;P2;durP2;ratioP2
1376;SDS011;682;52.502;13.488;2023-06-14T00:04:02;3.00;;;2.70;;
1376;SDS011;682;52.502;13.488;2023-06-14T00:06:30;4.77;;;3.63;;
1376;SDS011;682;52.502;13.488;2023-06-14T00:08:58;4.43;;;3.30;;
1376;SDS011;682;52.502;13.488;2023-06-14T00:11:26;4.53;;;3.40;;
1376;SDS011;682;52.502;13.488;2023-06-14T00:13:53;6.83;;;3.50;;
1376;SDS011;682;52.502;13.488;2023-06-14T00:16:20;5.87;;;3.17;;
1376;SDS011;682;52.502;13.488;2023-06-14T00:18:48;4.50;;;3.27;;
1376;SDS011;682;52.502;13.488;2023-06-14T00:21:18;4.80;;;3.20;;
1376;SDS011;682;52.502;13.488;2023-06-14T00:23:45;5.30;;;3.83;;
1376;SDS011;682;52.502;13.488;2023-06-14T00:26:12;5.20;;;3.27;;
1376;SDS011;682;52.502;13.488;2023-06-14T00:28:39;4.30;;;3.50;;
1376;SDS011;682;52.502;13.488;2023-06-14T00:31:06;5.93;;;3.80;;
1376;SDS011;682;52.502;13.488;2023-06-14T00:33:33;7.97;;;3.30;;
1376;SDS011;682;52.502;13.488;2023-06-14T00:36:00;6.33;;;3.80;;
1376;SDS011;682;52.502;13.488;2023-06-14T00:38:28;7.53;;;3.93;;
1376;SDS011;682;52.502;13.488;2023-06-14T00:40:55;6.00;;;3.60;;
1376;SDS011;682;52.502;13.488;2023-06-14T00:43:22;7.33;;;4.23;;
1376;SDS011;682;52.502;13.488;2023-06-14T00:45:49;8.20;;;4.03;;
1376;SDS011;682;52.502;13.488;2023-06-14T00:48:16;10.97;;;4.53;;
1376;SDS011;682;52.502;13.488;2023-06-14T00:50:43;6.63;;;3.93;;
1376;SDS011;682;52.502;13.488;2023-06-14T00:53:13;8.00;;;3.83;;
1376;SDS011;682;52.502;13.488;2023-06-14T00:55:43;9.47;;;4.63;;
1376;SDS011;682;52.502;13.488;2023-06-14T00:58:10;7.80;;;3.83;;
1376;SDS011;682;52.502;13.488;2023-06-14T01:00:39;8.70;;;5.17;;
1376;SDS011;682;52.502;13.488;2023-06-14T01:03:07;7.73;;;5.00;;
1376;SDS011;682;52.502;13.488;2023-06-14T01:05:37;6.80;;;5.37;;
1376;SDS011;682;52.502;13.488;2023-06-14T01:08:07;7.67;;;5.40;;
1376;SDS011;682;52.502;13.488;2023-06-14T01:10:46;6.30;;;4.73;;
1376;SDS011;682;52.502;13.488;2023-06-14T01:13:19;8.57;;;4.90;;
1376;SDS011;682;52.502;13.488;2023-06-14T01:15:49;5.73;;;4.27;;
1376;SDS011;682;52.502;13.488;2023-06-14T01:18:17;8.47;;;5.07;;
1376;SDS011;682;52.502;13.488;2023-06-14T01:20:44;7.93;;;5.20;;
1376;SDS011;682;52.502;13.488;2023-06-14T01:23:16;7.37;;;4.73;;
1376;SDS011;682;52.502;13.488;2023-06-14T01:25:43;8.10;;;5.03;;
1376;SDS011;682;52.502;13.488;2023-06-14T01:28:10;7.80;;;5.47;;
1376;SDS011;682;52.502;13.488;2023-06-14T01:30:38;8.27;;;4.83;;
1376;SDS011;682;52.502;13.488;2023-06-14T01:33:10;7.77;;;5.67;;
1376;SDS011;682;52.502;13.488;2023-06-14T01:35:38;7.03;;;5.27;;
1376;SDS011;682;52.502;13.488;2023-06-14T01:38:06;7.30;;;5.30;;
1376;SDS011;682;52.502;13.488;2023-06-14T01:40:36;5.90;;;4.53;;
1376;SDS011;682;52.502;13.488;2023-06-14T01:43:06;6.17;;;5.10;;
1376;SDS011;682;52.502;13.488;2023-06-14T01:45:33;9.57;;;5.60;;
1376;SDS011;682;52.502;13.488;2023-06-14T01:48:03;6.77;;;5.23;;
1376;SDS011;682;52.502;13.488;2023-06-14T01:50:31;9.37;;;5.50;;
1376;SDS011;682;52.502;13.488;2023-06-14T01:52:58;8.33;;;5.23;;
1376;SDS011;682;52.502;13.488;2023-06-14T01:55:25;8.43;;;5.33;;
1376;SDS011;682;52.502;13.488;2023-06-14T01:57:54;8.20;;;5.73;;
1376;SDS011;682;52.502;13.488;2023-06-14T02:00:21;7.10;;;5.63;;
1376;SDS011;682;52.502;13.488;2023-06-14T02:02:48;7.60;;;5.93;;
1376;SDS011;682;52.502;13.488;2023-06-14T02:05:15;9.47;;;5.63;;
1376;SDS011;682;52.502;13.488;2023-06-14T02:07:44;6.53;;;5.33;;
1376;SDS011;682;52.502;13.488;2023-06-14T02:10:11;10.27;;;5.30;;
1376;SDS011;682;52.502;13.488;2023-06-14T02:12:38;10.23;;;5.57;;
1376;SDS011;682;52.502;13.488;2023-06-14T02:15:08;8.70;;;6.97;;
1376;SDS011;682;52.502;13.488;2023-06-14T02:17:42;9.50;;;6.80;;
1376;SDS011;682;52.502;13.488;2023-06-14T02:20:09;6.97;;;5.90;;
1376;SDS011;682;52.502;13.488;2023-06-14T02:22:36;7.00;;;5.97;;
1376;SDS011;682;52.502;13.488;2023-06-14T02:25:03;7.27;;;6.03;;
1376;SDS011;682;52.502;13.488;2023-06-14T02:27:31;7.90;;;5.60;;
1376;SDS011;682;52.502;13.488;2023-06-14T02:29:58;8.50;;;6.37;;
1376;SDS011;682;52.502;13.488;2023-06-14T02:32:27;9.00;;;6.57;;
1376;SDS011;682;52.502;13.488;2023-06-14T02:34:54;8.20;;;6.10;;
1376;SDS011;682;52.502;13.488;2023-06-14T02:37:22;8.90;;;6.97;;
1376;SDS011;682;52.502;13.488;2023-06-14T02:39:49;8.23;;;6.73;;
1376;SDS011;682;52.502;13.488;2023-06-14T02:42:16;9.03;;;5.90;;
1376;SDS011;682;52.502;13.488;2023-06-14T02:44:43;9.57;;;7.00;;
1376;SDS011;682;52.502;13.488;2023-06-14T02:47:11;8.40;;;6.70;;
1376;SDS011;682;52.502;13.488;2023-06-14T02:49:40;10.43;;;6.60;;
1376;SDS011;682;52.502;13.488;2023-06-14T02:52:07;8.97;;;6.30;;
1376;SDS011;682;52.502;13.488;2023-06-14T02:54:34;7.67;;;5.97;;
1376;SDS011;682;52.502;13.488;2023-06-14T02:57:01;8.60;;;6.90;;
1376;SDS011;682;52.502;13.488;2023-06-14T02:59:28;11.33;;;7.77;;
1376;SDS011;682;52.502;13.488;2023-06-14T03:01:55;8.20;;;6.77;;
1376;SDS011;682;52.502;13.488;2023-06-14T03:04:22;11.40;;;7.40;;
1376;SDS011;682;52.502;13.488;2023-06-14T03:06:52;9.43;;;7.10;;
1376;SDS011;682;52.502;13.488;2023-06-14T03:09:19;9.63;;;6.37;;
1376;SDS011;682;52.502;13.488;2023-06-14T03:11:46;9.07;;;6.27;;
1376;SDS011;682;52.502;13.488;2023-06-14T03:14:13;11.80;;;7.80;;
1376;SDS011;682;52.502;13.488;2023-06-14T03:16:42;8.20;;;6.30;;
1376;SDS011;682;52.502;13.488;2023-06-14T03:19:09;10.57;;;7.30;;
1376;SDS011;682;52.502;13.488;2023-06-14T03:21:37;12.43;;;7.17;;
1376;SDS011;682;52.502;13.488;2023-06-14T03:24:10;8.30;;;6.33;;
1376;SDS011;682;52.502;13.488;2023-06-14T03:26:38;10.10;;;7.90;;
1376;SDS011;682;52.502;13.488;2023-06-14T03:29:06;8.70;;;7.27;;
1376;SDS011;682;52.502;13.488;2023-06-14T03:31:34;11.63;;;7.43;;
1376;SDS011;682;52.502;13.488;2023-06-14T03:34:01;10.50;;;7.13;;
1376;SDS011;682;52.502;13.488;2023-06-14T03:36:28;14.60;;;8.50;;
1376;SDS011;682;52.502;13.488;2023-06-14T03:38:58;12.17;;;6.80;;
1376;SDS011;682;52.502;13.488;2023-06-14T03:41:27;9.40;;;7.60;;
1376;SDS011;682;52.502;13.488;2023-06-14T03:43:54;7.50;;;6.90;;
1376;SDS011;682;52.502;13.488;2023-06-14T03:46:21;8.27;;;6.93;;
1376;SDS011;682;52.502;13.488;2023-06-14T03:48:48;31.73;;;11.07;;
1376;SDS011;682;52.502;13.488;2023-06-14T03:51:15;14.03;;;9.27;;
1376;SDS011;682;52.502;13.488;2023-06-14T03:53:44;8.77;;;7.80;;
1376;SDS011;682;52.502;13.488;2023-06-14T03:56:11;11.50;;;8.90;;
1376;SDS011;682;52.502;13.488;2023-06-14T03:58:40;10.67;;;8.10;;
1376;SDS011;682;52.502;13.488;2023-06-14T04:01:07;8.43;;;7.77;;
1376;SDS011;682;52.502;13.488;2023-06-14T04:03:34;9.37;;;8.17;;
1376;SDS011;682;52.502;13.488;2023-06-14T04:06:01;9.77;;;8.57;;
1376;SDS011;682;52.502;13.488;2023-06-14T04:08:28;10.23;;;8.70;;
1376;SDS011;682;52.502;13.488;2023-06-14T04:10:55;10.30;;;9.33;;
1376;SDS011;682;52.502;13.488;2023-06-14T04:13:22;9.83;;;8.20;;
1376;SDS011;682;52.502;13.488;2023-06-14T04:15:50;9.43;;;8.37;;
1376;SDS011;682;52.502;13.488;2023-06-14T04:18:17;8.57;;;7.70;;
1376;SDS011;682;52.502;13.488;2023-06-14T04:20:45;15.20;;;8.20;;
1376;SDS011;682;52.502;13.488;2023-06-14T04:23:13;10.00;;;9.00;;
1376;SDS011;682;52.502;13.488;2023-06-14T04:25:42;9.23;;;8.33;;
1376;SDS011;682;52.502;13.488;2023-06-14T04:28:10;8.43;;;7.63;;
1376;SDS011;682;52.502;13.488;2023-06-14T04:30:39;8.43;;;7.73;;
1376;SDS011;682;52.502;13.488;2023-06-14T04:33:07;8.70;;;7.77;;
1376;SDS011;682;52.502;13.488;2023-06-14T04:35:35;9.30;;;8.40;;
1376;SDS011;682;52.502;13.488;2023-06-14T04:38:02;8.87;;;8.07;;
1376;SDS011;682;52.502;13.488;2023-06-14T04:40:34;9.43;;;8.47;;
1376;SDS011;682;52.502;13.488;2023-06-14T04:43:07;18.20;;;10.60;;
1376;SDS011;682;52.502;13.488;2023-06-14T04:45:38;9.10;;;8.03;;
1376;SDS011;682;52.502;13.488;2023-06-14T04:48:06;9.07;;;8.17;;
1376;SDS011;682;52.502;13.488;2023-06-14T04:50:35;8.60;;;7.90;;
1376;SDS011;682;52.502;13.488;2023-06-14T04:53:02;8.87;;;7.93;;
1376;SDS011;682;52.502;13.488;2023-06-14T04:55:31;8.37;;;7.60;;
1376;SDS011;682;52.502;13.488;2023-06-14T04:57:59;10.30;;;8.83;;
1376;SDS011;682;52.502;13.488;2023-06-14T05:00:26;9.90;;;8.97;;
1376;SDS011;682;52.502;13.488;2023-06-14T05:02:55;7.77;;;7.07;;
1376;SDS011;682;52.502;13.488;2023-06-14T05:05:24;9.10;;;8.30;;
1376;SDS011;682;52.502;13.488;2023-06-14T05:07:51;8.50;;;7.90;;
1376;SDS011;682;52.502;13.488;2023-06-14T05:10:19;9.07;;;8.37;;
1376;SDS011;682;52.502;13.488;2023-06-14T05:12:46;8.60;;;7.83;;
1376;SDS011;682;52.502;13.488;2023-06-14T05:15:14;9.53;;;8.33;;
1376;SDS011;682;52.502;13.488;2023-06-14T05:17:41;8.53;;;7.87;;
1376;SDS011;682;52.502;13.488;2023-06-14T05:20:08;9.50;;;8.70;;
1376;SDS011;682;52.502;13.488;2023-06-14T05:22:37;9.20;;;8.30;;
1376;SDS011;682;52.502;13.488;2023-06-14T05:25:05;9.33;;;8.33;;
1376;SDS011;682;52.502;13.488;2023-06-14T05:27:33;11.20;;;7.93;;
1376;SDS011;682;52.502;13.488;2023-06-14T05:30:02;9.03;;;8.13;;
1376;SDS011;682;52.502;13.488;2023-06-14T05:32:30;9.30;;;8.50;;
1376;SDS011;682;52.502;13.488;2023-06-14T05:34:57;10.03;;;9.13;;
1376;SDS011;682;52.502;13.488;2023-06-14T05:37:24;12.30;;;8.97;;
1376;SDS011;682;52.502;13.488;2023-06-14T05:39:53;18.53;;;16.87;;
1376;SDS011;682;52.502;13.488;2023-06-14T05:42:20;9.27;;;8.47;;
1376;SDS011;682;52.502;13.488;2023-06-14T05:44:52;10.70;;;7.73;;
1376;SDS011;682;52.502;13.488;2023-06-14T05:47:20;10.20;;;9.27;;
1376;SDS011;682;52.502;13.488;2023-06-14T05:49:48;7.97;;;7.27;;
1376;SDS011;682;52.502;13.488;2023-06-14T05:52:15;11.20;;;7.73;;
1376;SDS011;682;52.502;13.488;2023-06-14T05:54:42;11.77;;;7.60;;
1376;SDS011;682;52.502;13.488;2023-06-14T05:57:10;8.03;;;7.33;;
1376;SDS011;682;52.502;13.488;2023-06-14T05:59:40;9.50;;;8.60;;
1376;SDS011;682;52.502;13.488;2023-06-14T06:02:07;10.17;;;9.13;;
1376;SDS011;682;52.502;13.488;2023-06-14T06:04:34;8.43;;;7.63;;
1376;SDS011;682;52.502;13.488;2023-06-14T06:07:03;12.20;;;9.57;;
1376;SDS011;682;52.502;13.488;2023-06-14T06:09:32;9.93;;;9.03;;
1376;SDS011;682;52.502;13.488;2023-06-14T06:11:59;11.23;;;8.70;;
1376;SDS011;682;52.502;13.488;2023-06-14T06:14:27;11.13;;;10.03;;
1376;SDS011;682;52.502;13.488;2023-06-14T06:16:54;9.60;;;8.50;;
1376;SDS011;682;52.502;13.488;2023-06-14T06:19:21;9.20;;;8.13;;
1376;SDS011;682;52.502;13.488;2023-06-14T06:21:48;9.10;;;8.20;;
1376;SDS011;682;52.502;13.488;2023-06-14T06:24:16;8.00;;;7.20;;
1376;SDS011;682;52.502;13.488;2023-06-14T06:26:43;12.67;;;7.50;;
1376;SDS011;682;52.502;13.488;2023-06-14T06:29:13;10.30;;;9.20;;
1376;SDS011;682;52.502;13.488;2023-06-14T06:31:41;12.73;;;9.20;;
1376;SDS011;682;52.502;13.488;2023-06-14T06:34:10;9.40;;;8.10;;
1376;SDS011;682;52.502;13.488;2023-06-14T06:36:37;10.47;;;8.10;;
1376;SDS011;682;52.502;13.488;2023-06-14T06:39:04;9.27;;;7.60;;
1376;SDS011;682;52.502;13.488;2023-06-14T06:41:35;33.30;;;11.07;;
1376;SDS011;682;52.502;13.488;2023-06-14T06:44:03;15.53;;;9.10;;
1376;SDS011;682;52.502;13.488;2023-06-14T06:46:30;9.17;;;7.50;;
1376;SDS011;682;52.502;13.488;2023-06-14T06:48:59;14.33;;;8.30;;
1376;SDS011;682;52.502;13.488;2023-06-14T06:51:26;11.23;;;9.10;;
1376;SDS011;682;52.502;13.488;2023-06-14T06:53:53;9.97;;;6.97;;
1376;SDS011;682;52.502;13.488;2023-06-14T06:56:20;10.33;;;8.20;;
1376;SDS011;682;52.502;13.488;2023-06-14T06:58:48;8.47;;;7.10;;
1376;SDS011;682;52.502;13.488;2023-06-14T07:01:15;10.50;;;7.70;;
1376;SDS011;682;52.502;13.488;2023-06-14T07:03:42;8.60;;;7.43;;
1376;SDS011;682;52.502;13.488;2023-06-14T07:06:11;15.20;;;8.00;;
1376;SDS011;682;52.502;13.488;2023-06-14T07:08:38;8.20;;;6.03;;
1376;SDS011;682;52.502;13.488;2023-06-14T07:11:05;8.13;;;6.33;;
1376;SDS011;682;52.502;13.488;2023-06-14T07:13:33;18.67;;;7.53;;
1376;SDS011;682;52.502;13.488;2023-06-14T07:16:01;10.07;;;6.10;;
1376;SDS011;682;52.502;13.488;2023-06-14T07:18:29;8.37;;;6.93;;
1376;SDS011;682;52.502;13.488;2023-06-14T07:20:57;10.43;;;7.07;;
1376;SDS011;682;52.502;13.488;2023-06-14T07:23:25;7.93;;;6.90;;
1376;SDS011;682;52.502;13.488;2023-06-14T07:25:52;17.53;;;13.63;;
1376;SDS011;682;52.502;13.488;2023-06-14T07:28:19;8.80;;;6.20;;
1376;SDS011;682;52.502;13.488;2023-06-14T07:30:47;13.03;;;8.30;;
1376;SDS011;682;52.502;13.488;2023-06-14T07:33:14;8.47;;;6.73;;
1376;SDS011;682;52.502;13.488;2023-06-14T07:35:41;10.30;;;7.20;;
1376;SDS011;682;52.502;13.488;2023-06-14T07:38:08;12.43;;;7.97;;
1376;SDS011;682;52.502;13.488;2023-06-14T07:40:36;9.40;;;7.20;;
1376;SDS011;682;52.502;13.488;2023-06-14T07:43:03;9.30;;;7.23;;
1376;SDS011;682;52.502;13.488;2023-06-14T07:45:30;9.43;;;6.43;;
1376;SDS011;682;52.502;13.488;2023-06-14T07:47:59;9.70;;;6.20;;
1376;SDS011;682;52.502;13.488;2023-06-14T07:50:26;10.43;;;7.20;;
1376;SDS011;682;52.502;13.488;2023-06-14T07:52:53;14.10;;;7.87;;
1376;SDS011;682;52.502;13.488;2023-06-14T07:55:20;10.03;;;7.10;;
1376;SDS011;682;52.502;13.488;2023-06-14T07:57:49;10.10;;;6.53;;
1376;SDS011;682;52.502;13.488;2023-06-14T08:00:16;11.60;;;7.40;;
1376;SDS011;682;52.502;13.488;2023-06-14T08:02:45;7.57;;;5.83;;
1376;SDS011;682;52.502;13.488;2023-06-14T08:05:12;9.87;;;7.33;;
1376;SDS011;682;52.502;13.488;2023-06-14T08:07:39;9.50;;;7.43;;
1376;SDS011;682;52.502;13.488;2023-06-14T08:10:07;7.40;;;6.40;;
1376;SDS011;682;52.502;13.488;2023-06-14T08:12:36;9.70;;;6.53;;
1376;SDS011;682;52.502;13.488;2023-06-14T08:15:05;12.50;;;9.07;;
1376;SDS011;682;52.502;13.488;2023-06-14T08:17:32;6.80;;;6.10;;
1376;SDS011;682;52.502;13.488;2023-06-14T08:19:59;6.60;;;6.00;;
1376;SDS011;682;52.502;13.488;2023-06-14T08:22:26;8.53;;;5.90;;
1376;SDS011;682;52.502;13.488;2023-06-14T08:24:56;6.97;;;5.97;;
1376;SDS011;682;52.502;13.488;2023-06-14T08:27:24;6.20;;;5.70;;
1376;SDS011;682;52.502;13.488;2023-06-14T08:29:51;8.63;;;5.67;;
1376;SDS011;682;52.502;13.488;2023-06-14T08:32:20;6.27;;;5.77;;
1376;SDS011;682;52.502;13.488;2023-06-14T08:34:46;7.43;;;6.77;;
1376;SDS011;682;52.502;13.488;2023-06-14T08:37:13;6.43;;;5.90;;
1376;SDS011;682;52.502;13.488;2023-06-14T08:39:40;6.10;;;5.50;;
1376;SDS011;682;52.502;13.488;2023-06-14T08:42:09;6.90;;;6.00;;
1376;SDS011;682;52.502;13.488;2023-06-14T08:44:36;7.73;;;6.17;;
1376;SDS011;682;52.502;13.488;2023-06-14T08:47:03;6.30;;;5.80;;
1376;SDS011;682;52.502;13.488;2023-06-14T08:49:35;6.87;;;4.90;;
1376;SDS011;682;52.502;13.488;2023-06-14T08:52:05;6.20;;;5.60;;
1376;SDS011;682;52.502;13.488;2023-06-14T08:54:35;6.47;;;4.90;;
1376;SDS011;682;52.502;13.488;2023-06-14T08:57:09;5.20;;;4.70;;
1376;SDS011;682;52.502;13.488;2023-06-14T08:59:40;8.60;;;4.73;;
1376;SDS011;682;52.502;13.488;2023-06-14T09:02:14;5.70;;;5.20;;
1376;SDS011;682;52.502;13.488;2023-06-14T09:04:44;6.07;;;5.47;;
1376;SDS011;682;52.502;13.488;2023-06-14T09:07:11;5.90;;;5.40;;
1376;SDS011;682;52.502;13.488;2023-06-14T09:09:38;5.97;;;4.43;;
1376;SDS011;682;52.502;13.488;2023-06-14T09:12:07;8.10;;;4.80;;
1376;SDS011;682;52.502;13.488;2023-06-14T09:14:36;5.60;;;5.10;;
1376;SDS011;682;52.502;13.488;2023-06-14T09:17:06;4.50;;;4.20;;
1376;SDS011;682;52.502;13.488;2023-06-14T09:19:33;4.80;;;4.40;;
1376;SDS011;682;52.502;13.488;2023-06-14T09:22:04;5.50;;;5.00;;
1376;SDS011;682;52.502;13.488;2023-06-14T09:24:31;8.87;;;6.90;;
1376;SDS011;682;52.502;13.488;2023-06-14T09:26:58;7.20;;;5.80;;
1376;SDS011;682;52.502;13.488;2023-06-14T09:29:25;6.27;;;4.57;;
1376;SDS011;682;52.502;13.488;2023-06-14T09:31:53;14.70;;;5.77;;
1376;SDS011;682;52.502;13.488;2023-06-14T09:34:20;5.13;;;4.40;;
1376;SDS011;682;52.502;13.488;2023-06-14T09:36:48;10.00;;;6.10;;
1376;SDS011;682;52.502;13.488;2023-06-14T09:39:17;9.17;;;5.17;;
1376;SDS011;682;52.502;13.488;2023-06-14T09:41:44;5.70;;;5.20;;
1376;SDS011;682;52.502;13.488;2023-06-14T09:44:11;9.50;;;5.40;;
1376;SDS011;682;52.502;13.488;2023-06-14T09:46:38;5.87;;;5.30;;
1376;SDS011;682;52.502;13.488;2023-06-14T09:49:06;7.13;;;5.53;;
1376;SDS011;682;52.502;13.488;2023-06-14T09:51:34;5.70;;;4.80;;
1376;SDS011;682;52.502;13.488;2023-06-14T09:54:08;7.10;;;5.60;;
1376;SDS011;682;52.502;13.488;2023-06-14T09:56:44;5.80;;;4.97;;
1376;SDS011;682;52.502;13.488;2023-06-14T09:59:12;6.70;;;5.20;;
1376;SDS011;682;52.502;13.488;2023-06-14T10:01:41;7.13;;;5.63;;
1376;SDS011;682;52.502;13.488;2023-06-14T10:04:09;5.90;;;5.33;;
1376;SDS011;682;52.502;13.488;2023-06-14T10:06:37;5.47;;;4.80;;
1376;SDS011;682;52.502;13.488;2023-06-14T10:09:09;6.20;;;5.50;;
1376;SDS011;682;52.502;13.488;2023-06-14T10:11:37;5.87;;;5.00;;
1376;SDS011;682;52.502;13.488;2023-06-14T10:14:10;6.33;;;5.73;;
1376;SDS011;682;52.502;13.488;2023-06-14T10:16:41;6.17;;;5.57;;
1376;SDS011;682;52.502;13.488;2023-06-14T10:19:18;5.70;;;5.00;;
1376;SDS011;682;52.502;13.488;2023-06-14T10:21:49;7.03;;;4.93;;
1376;SDS011;682;52.502;13.488;2023-06-14T10:24:27;6.67;;;5.70;;
1376;SDS011;682;52.502;13.488;2023-06-14T10:26:58;6.30;;;5.60;;
1376;SDS011;682;52.502;13.488;2023-06-14T10:29:27;6.40;;;5.27;;
1376;SDS011;682;52.502;13.488;2023-06-14T10:31:57;9.40;;;5.67;;
1376;SDS011;682;52.502;13.488;2023-06-14T10:34:26;6.43;;;4.90;;
1376;SDS011;682;52.502;13.488;2023-06-14T10:37:04;5.50;;;5.00;;
1376;SDS011;682;52.502;13.488;2023-06-14T10:39:38;5.53;;;4.90;;
1376;SDS011;682;52.502;13.488;2023-06-14T10:42:06;6.97;;;5.70;;
1376;SDS011;682;52.502;13.488;2023-06-14T10:44:39;5.93;;;5.00;;
1376;SDS011;682;52.502;13.488;2023-06-14T10:47:08;5.33;;;4.83;;
1376;SDS011;682;52.502;13.488;2023-06-14T10:49:39;8.93;;;5.80;;
1376;SDS011;682;52.502;13.488;2023-06-14T10:52:08;5.80;;;5.30;;
1376;SDS011;682;52.502;13.488;2023-06-14T10:54:59;7.17;;;4.80;;
1376;SDS011;682;52.502;13.488;2023-06-14T10:57:31;7.30;;;6.60;;
1376;SDS011;682;52.502;13.488;2023-06-14T11:00:00;5.30;;;4.80;;
1376;SDS011;682;52.502;13.488;2023-06-14T11:05:48;5.80;;;4.80;;
1376;SDS011;682;52.502;13.488;2023-06-14T11:11:17;7.67;;;4.77;;
1376;SDS011;682;52.502;13.488;2023-06-14T11:13:47;8.13;;;5.10;;
1376;SDS011;682;52.502;13.488;2023-06-14T11:16:16;5.23;;;4.73;;
1376;SDS011;682;52.502;13.488;2023-06-14T11:18:44;8.37;;;5.77;;
1376;SDS011;682;52.502;13.488;2023-06-14T11:21:11;8.10;;;5.40;;
1376;SDS011;682;52.502;13.488;2023-06-14T11:23:41;9.93;;;6.90;;
1376;SDS011;682;52.502;13.488;2023-06-14T11:26:08;8.97;;;6.30;;
1376;SDS011;682;52.502;13.488;2023-06-14T11:28:36;7.00;;;6.00;;
1376;SDS011;682;52.502;13.488;2023-06-14T11:31:04;7.60;;;5.40;;
1376;SDS011;682;52.502;13.488;2023-06-14T11:33:33;7.63;;;6.00;;
1376;SDS011;682;52.502;13.488;2023-06-14T11:36:01;7.30;;;5.00;;
1376;SDS011;682;52.502;13.488;2023-06-14T11:38:28;24.20;;;8.77;;
1376;SDS011;682;52.502;13.488;2023-06-14T11:40:58;8.20;;;5.37;;
1376;SDS011;682;52.502;13.488;2023-06-14T11:43:25;8.93;;;5.67;;
1376;SDS011;682;52.502;13.488;2023-06-14T11:45:52;5.20;;;4.63;;
1376;SDS011;682;52.502;13.488;2023-06-14T11:48:19;5.80;;;5.03;;
1376;SDS011;682;52.502;13.488;2023-06-14T11:50:50;10.60;;;5.10;;
1376;SDS011;682;52.502;13.488;2023-06-14T11:53:17;4.60;;;3.83;;
1376;SDS011;682;52.502;13.488;2023-06-14T11:55:44;7.90;;;5.87;;
1376;SDS011;682;52.502;13.488;2023-06-14T11:58:12;7.90;;;5.17;;
1376;SDS011;682;52.502;13.488;2023-06-14T12:00:40;5.00;;;4.57;;
1376;SDS011;682;52.502;13.488;2023-06-14T12:03:07;5.17;;;4.77;;
1376;SDS011;682;52.502;13.488;2023-06-14T12:05:34;7.00;;;5.30;;
1376;SDS011;682;52.502;13.488;2023-06-14T12:08:03;5.50;;;5.00;;
1376;SDS011;682;52.502;13.488;2023-06-14T12:10:39;6.40;;;4.23;;
1376;SDS011;682;52.502;13.488;2023-06-14T12:13:06;5.43;;;4.93;;
1376;SDS011;682;52.502;13.488;2023-06-14T12:15:34;5.30;;;4.70;;
1376;SDS011;682;52.502;13.488;2023-06-14T12:18:01;5.97;;;5.13;;
1376;SDS011;682;52.502;13.488;2023-06-14T12:20:33;8.70;;;5.23;;
1376;SDS011;682;52.502;13.488;2023-06-14T12:23:03;5.87;;;4.87;;
1376;SDS011;682;52.502;13.488;2023-06-14T12:25:31;5.50;;;4.20;;
1376;SDS011;682;52.502;13.488;2023-06-14T12:28:03;6.83;;;6.20;;
1376;SDS011;682;52.502;13.488;2023-06-14T12:30:31;4.43;;;3.90;;
1376;SDS011;682;52.502;13.488;2023-06-14T12:32:58;5.87;;;4.60;;
1376;SDS011;682;52.502;13.488;2023-06-14T12:35:25;4.53;;;4.13;;
1376;SDS011;682;52.502;13.488;2023-06-14T12:37:52;4.70;;;4.20;;
1376;SDS011;682;52.502;13.488;2023-06-14T12:40:21;5.53;;;4.20;;
1376;SDS011;682;52.502;13.488;2023-06-14T12:42:48;6.50;;;5.07;;
1376;SDS011;682;52.502;13.488;2023-06-14T12:45:15;4.00;;;3.70;;
1376;SDS011;682;52.502;13.488;2023-06-14T12:47:42;5.17;;;3.70;;
1376;SDS011;682;52.502;13.488;2023-06-14T12:50:09;4.30;;;4.00;;
1376;SDS011;682;52.502;13.488;2023-06-14T12:52:36;9.40;;;4.40;;
1376;SDS011;682;52.502;13.488;2023-06-14T12:55:03;4.60;;;3.77;;
1376;SDS011;682;52.502;13.488;2023-06-14T12:57:33;6.60;;;4.53;;
1376;SDS011;682;52.502;13.488;2023-06-14T13:00:02;8.00;;;4.93;;
1376;SDS011;682;52.502;13.488;2023-06-14T13:02:32;5.40;;;4.60;;
1376;SDS011;682;52.502;13.488;2023-06-14T13:04:59;4.87;;;4.40;;
1376;SDS011;682;52.502;13.488;2023-06-14T13:07:28;6.57;;;4.63;;
1376;SDS011;682;52.502;13.488;2023-06-14T13:09:55;5.83;;;5.20;;
1376;SDS011;682;52.502;13.488;2023-06-14T13:12:22;6.63;;;4.73;;
1376;SDS011;682;52.502;13.488;2023-06-14T13:14:50;6.10;;;5.43;;
1376;SDS011;682;52.502;13.488;2023-06-14T13:17:18;5.83;;;4.20;;
1376;SDS011;682;52.502;13.488;2023-06-14T13:19:47;7.73;;;4.70;;
1376;SDS011;682;52.502;13.488;2023-06-14T13:22:15;8.40;;;4.67;;
1376;SDS011;682;52.502;13.488;2023-06-14T13:24:42;7.43;;;4.77;;
1376;SDS011;682;52.502;13.488;2023-06-14T13:27:08;7.30;;;4.50;;
1376;SDS011;682;52.502;13.488;2023-06-14T13:29:36;5.20;;;4.10;;
1376;SDS011;682;52.502;13.488;2023-06-14T13:32:05;5.80;;;4.37;;
1376;SDS011;682;52.502;13.488;2023-06-14T13:34:33;6.63;;;4.40;;
1376;SDS011;682;52.502;13.488;2023-06-14T13:37:00;9.23;;;4.40;;
1376;SDS011;682;52.502;13.488;2023-06-14T13:39:27;6.77;;;4.40;;
1376;SDS011;682;52.502;13.488;2023-06-14T13:41:54;5.23;;;4.50;;
1376;SDS011;682;52.502;13.488;2023-06-14T13:44:21;6.97;;;4.50;;
1376;SDS011;682;52.502;13.488;2023-06-14T13:46:48;6.63;;;5.13;;
1376;SDS011;682;52.502;13.488;2023-06-14T13:49:16;6.53;;;4.40;;
1376;SDS011;682;52.502;13.488;2023-06-14T13:51:44;9.13;;;4.27;;
1376;SDS011;682;52.502;13.488;2023-06-14T13:54:11;8.07;;;4.80;;
1376;SDS011;682;52.502;13.488;2023-06-14T13:56:39;7.03;;;5.50;;
1376;SDS011;682;52.502;13.488;2023-06-14T13:59:06;9.67;;;5.70;;
1376;SDS011;682;52.502;13.488;2023-06-14T14:01:34;7.10;;;4.53;;
1376;SDS011;682;52.502;13.488;2023-06-14T14:04:01;7.80;;;4.77;;
1376;SDS011;682;52.502;13.488;2023-06-14T14:28:58;6.60;;;4.13;;
1376;SDS011;682;52.502;13.488;2023-06-14T14:31:25;9.03;;;5.33;;
1376;SDS011;682;52.502;13.488;2023-06-14T14:33:52;5.80;;;4.50;;
1376;SDS011;682;52.502;13.488;2023-06-14T14:36:19;9.87;;;4.73;;
1376;SDS011;682;52.502;13.488;2023-06-14T14:38:46;5.40;;;4.23;;
1376;SDS011;682;52.502;13.488;2023-06-14T14:41:13;11.13;;;5.20;;
1376;SDS011;682;52.502;13.488;2023-06-14T14:43:40;6.23;;;4.33;;
1376;SDS011;682;52.502;13.488;2023-06-14T14:46:09;5.93;;;4.43;;
1376;SDS011;682;52.502;13.488;2023-06-14T14:48:36;5.93;;;5.10;;
1376;SDS011;682;52.502;13.488;2023-06-14T14:51:03;6.30;;;4.03;;
1376;SDS011;682;52.502;13.488;2023-06-14T14:53:30;5.30;;;4.33;;
1376;SDS011;682;52.502;13.488;2023-06-14T14:55:57;9.50;;;4.77;;
1376;SDS011;682;52.502;13.488;2023-06-14T14:58:24;8.10;;;5.13;;
1376;SDS011;682;52.502;13.488;2023-06-14T15:00:52;8.00;;;5.23;;
1376;SDS011;682;52.502;13.488;2023-06-14T15:03:20;6.17;;;5.23;;
1376;SDS011;682;52.502;13.488;2023-06-14T15:05:47;8.30;;;4.70;;
1376;SDS011;682;52.502;13.488;2023-06-14T15:08:14;10.77;;;5.50;;
1376;SDS011;682;52.502;13.488;2023-06-14T15:10:41;8.40;;;4.60;;
1376;SDS011;682;52.502;13.488;2023-06-14T15:13:09;6.90;;;4.30;;
1376;SDS011;682;52.502;13.488;2023-06-14T15:15:36;6.17;;;4.80;;
1376;SDS011;682;52.502;13.488;2023-06-14T15:18:03;10.93;;;5.20;;
1376;SDS011;682;52.502;13.488;2023-06-14T15:20:36;6.23;;;5.17;;
1376;SDS011;682;52.502;13.488;2023-06-14T15:23:02;8.20;;;5.13;;
1376;SDS011;682;52.502;13.488;2023-06-14T15:25:30;10.83;;;6.77;;
1376;SDS011;682;52.502;13.488;2023-06-14T15:27:57;10.87;;;4.80;;
1376;SDS011;682;52.502;13.488;2023-06-14T15:30:24;11.27;;;5.10;;
1376;SDS011;682;52.502;13.488;2023-06-14T15:32:52;5.00;;;4.23;;
1376;SDS011;682;52.502;13.488;2023-06-14T15:35:18;7.90;;;5.70;;
1376;SDS011;682;52.502;13.488;2023-06-14T15:37:48;8.37;;;5.17;;
1376;SDS011;682;52.502;13.488;2023-06-14T15:40:15;7.73;;;6.30;;
1376;SDS011;682;52.502;13.488;2023-06-14T15:42:42;12.27;;;4.80;;
1376;SDS011;682;52.502;13.488;2023-06-14T15:45:09;7.20;;;4.50;;
1376;SDS011;682;52.502;13.488;2023-06-14T15:47:37;8.20;;;4.60;;
1376;SDS011;682;52.502;13.488;2023-06-14T15:50:04;5.00;;;4.47;;